createdAt,value
2018-03-25T01:49:13.347Z,72.57
2018-03-25T02:42:00.227Z,75.44
2018-03-25T02:50:27.718Z,76.62
2018-03-25T05:36:10.881Z,77.56
2018-03-25T06:42:16.713Z,74.54
2018-03-25T06:46:35.390Z,74.67
2018-03-25T06:52:50.098Z,74.63
2018-03-25T06:55:50.223Z,74.51
2018-03-25T07:01:47.478Z,81.82
2018-03-25T07:05:21.625Z,83.32
2018-03-25T07:07:51.978Z,82.63
2018-03-25T07:10:26.931Z,80.28
2018-03-25T07:12:57.719Z,78.73
2018-03-25T07:15:29.060Z,77.64
2018-03-25T08:47:08.453Z,75.92
2018-03-25T08:52:37.319Z,73.94
2018-03-25T08:55:11.140Z,72.71
2018-03-25T08:58:38.987Z,70.75
2018-03-25T09:01:17.804Z,70.55
2018-03-25T09:03:59.375Z,70.51
2018-03-25T09:06:36.405Z,70.39
2018-03-25T09:09:21.301Z,69.75
2018-03-25T09:17:58.838Z,69.69
2018-03-25T09:23:55.854Z,65.52
2018-03-25T09:26:35.272Z,63.74
2018-03-25T09:38:29.771Z,61.93
2018-03-25T09:41:31.778Z,59.89
2018-03-25T09:46:54.639Z,58.30
2018-03-25T09:57:11.156Z,59.30
2018-03-25T10:00:02.256Z,60.42
2018-03-25T10:16:27.204Z,56.94
2018-03-25T10:19:01.756Z,59.02
2018-03-25T10:24:14.713Z,54.71
2018-03-25T10:26:54.709Z,53.76
2018-03-25T10:29:26.458Z,55.07
2018-03-25T10:36:59.822Z,54.41
2018-03-25T10:42:42.032Z,52.65
2018-03-25T10:45:41.288Z,52.88
2018-03-25T10:48:08.568Z,53.60
2018-03-25T10:50:44.008Z,54.00
2018-03-25T11:04:34.258Z,52.72
2018-03-25T11:07:12.711Z,52.17
2018-03-25T11:09:56.007Z,52.15
2018-03-25T11:12:42.549Z,52.12
2018-03-25T14:46:41.538Z,49.86
2018-03-25T14:49:38.558Z,49.46
2018-03-25T14:52:26.644Z,49.15
2018-03-25T15:12:17.929Z,50.00
2018-03-25T15:14:58.880Z,50.16
2018-03-25T15:17:29.461Z,50.68
2018-03-25T15:19:59.715Z,50.36
2018-03-25T15:28:55.569Z,51.45
2018-03-25T15:31:24.536Z,51.21
2018-03-25T15:33:55.239Z,51.12
2018-03-25T15:36:25.146Z,51.03
2018-03-25T15:39:13.363Z,50.96
2018-03-25T15:42:46.236Z,51.29
2018-03-25T15:45:23.639Z,51.38
2018-03-25T15:47:52.414Z,51.69
2018-03-25T15:50:21.170Z,51.67
2018-03-25T15:52:50.919Z,51.67
2018-03-25T15:55:19.748Z,51.89
2018-03-25T15:57:49.344Z,52.22
2018-03-25T16:00:18.157Z,51.76
2018-03-25T16:02:47.075Z,52.02
2018-03-25T16:05:17.886Z,53.01
2018-03-25T16:07:52.235Z,52.11
2018-03-25T16:10:21.983Z,52.61
2018-03-25T16:12:51.019Z,52.51
2018-03-25T16:15:20.308Z,52.22
2018-03-25T16:17:52.758Z,52.99
2018-03-25T16:20:29.798Z,52.67
2018-03-25T16:22:58.768Z,52.32
2018-03-25T16:25:28.668Z,52.33
2018-03-25T16:28:05.827Z,53.12
2018-03-25T16:30:36.368Z,52.63
2018-03-25T16:33:06.673Z,53.18
2018-03-25T16:35:41.080Z,53.68
2018-03-25T16:38:12.554Z,53.39
2018-03-25T16:40:43.887Z,53.47
2018-03-25T16:43:13.548Z,52.88
2018-03-25T16:45:46.516Z,53.34
2018-03-25T16:48:19.065Z,53.47
2018-03-25T16:50:48.072Z,53.82
2018-03-25T16:53:17.723Z,53.82
2018-03-25T16:55:49.177Z,53.76
2018-03-25T16:58:19.900Z,53.72
2018-03-25T17:00:49.076Z,54.67
2018-03-25T17:03:18.086Z,54.62
2018-03-25T17:05:47.296Z,54.24
2018-03-25T17:08:16.969Z,54.52
2018-03-25T17:10:46.669Z,53.96
2018-03-25T17:13:16.694Z,54.44
2018-03-25T17:15:45.862Z,54.64
2018-03-25T17:21:24.151Z,54.82
2018-03-25T17:23:53.101Z,54.30
2018-03-25T17:26:23.642Z,53.94
2018-03-25T17:28:53.255Z,54.18
2018-03-25T17:31:26.285Z,54.14
2018-03-25T17:33:55.109Z,54.50
2018-03-25T17:36:24.544Z,54.54
2018-03-25T17:38:54.132Z,54.22
2018-03-25T17:41:23.438Z,53.79
2018-03-25T17:43:54.131Z,54.47
2018-03-25T17:46:24.499Z,54.23
2018-03-25T17:48:56.691Z,54.95
2018-03-25T17:51:25.452Z,55.03
2018-03-25T17:53:55.158Z,54.99
2018-03-25T17:56:24.475Z,55.37
2018-03-25T17:58:54.950Z,55.10
2018-03-25T18:05:04.394Z,55.40
2018-03-25T18:07:34.651Z,55.93
2018-03-25T18:10:05.486Z,55.71
2018-03-25T18:12:35.005Z,55.83
2018-03-25T18:15:04.814Z,56.12
2018-03-25T18:17:34.470Z,56.14
2018-03-25T18:20:03.287Z,56.15
2018-03-25T18:22:33.164Z,56.34
2018-03-25T18:25:05.308Z,56.03
2018-03-25T18:27:34.959Z,56.52
2018-03-25T18:30:08.287Z,56.24
2018-03-25T18:32:38.150Z,56.61
2018-03-25T18:38:31.000Z,56.52
2018-03-25T19:22:05.507Z,58.09
2018-03-25T19:27:24.920Z,58.80
2018-03-25T19:30:09.686Z,58.71
2018-03-25T19:36:48.308Z,58.91
2018-03-25T19:42:39.708Z,59.48
2018-03-25T19:45:13.457Z,59.57
2018-03-25T19:47:42.444Z,59.65
2018-03-25T19:50:12.310Z,60.16
2018-03-25T19:52:41.234Z,60.49
2018-03-25T19:55:09.988Z,60.72
2018-03-25T19:57:38.750Z,60.80
2018-03-25T20:00:08.814Z,60.51
2018-03-25T20:02:51.757Z,60.32
2018-03-25T20:05:21.470Z,60.41
2018-03-25T20:07:50.284Z,60.46
2018-03-25T20:10:19.214Z,60.45
2018-03-25T20:12:49.324Z,60.28
2018-03-25T20:15:19.191Z,60.13
2018-03-25T20:17:49.209Z,60.18
2018-03-25T20:20:33.864Z,60.26
2018-03-25T21:05:31.463Z,64.05
2018-03-25T21:09:49.054Z,64.56
2018-03-25T21:12:27.911Z,64.75
2018-03-25T22:12:18.372Z,63.91
2018-03-25T22:14:47.345Z,63.59
2018-03-25T22:17:17.185Z,63.41
2018-03-25T22:20:07.003Z,63.17
